Painted Post, New York
Current Conditions -  °F | °C
As of 8:53 PM on Saturday 25 Oct 2014 (Local Time) from KELM Reporting Station
Few Clouds Few Clouds  
Wind Chill: 60°   Ceiling: Unl
Heat Index: 60°   Visibility: 10mi
Dew Point: 42°   Wind: 14mph
Humidity: 51%   Direction: 260°W
Pressure: 29.63"   Gusts: NA
Location:  42.16°N, 77.09°W
Report Text: KELM 260053Z AUTO 26012KT 10SM FEW060 16/06 A2963 RMK AO2 SLP033 T01560056
Loading
Personal Weather Stations






























Interactive Weather Map
Tropical Storm Tracking
New forecast layout! Learn more

10-Day Weather Forecast

Advertisements
Track Severe Weather on mobile